KUKT/UKT METAR and TAF weather

Enter ICAO airport designator
Station Type Date Time Source
KUKT METAR 2022/01/29 12:35 UTC NOAA

KUKT 291235Z AUTO 29010G18KT 270V330 1 1/4SM BR M08/M10 A2977 RMK A01 P0002


Station Type Date Time Source
KUKT Decoded METAR 2022/01/29 12:35 UTC NOAA

Quakertown, Quakertown Airport, PA, United States (KUKT) 40-26-06N 075-22-54W
Jan 29, 2022 - 07:35 AM EST / 2022.01.29 1235 UTC
Wind: from the WNW (290 degrees) at 12 MPH (10 KT) gusting to 21 MPH (18 KT) (direction variable):0
Visibility: 1 1/4 mile(s):0
Weather: mist
Precipitation last hour: 0.02 inches
Temperature: 17 F (-8 C)
Windchill: 3 F (-16 C):1
Dew Point: 14 F (-10 C)
Relative Humidity: 85%
Pressure (altimeter): 29.77 in. Hg (1008 hPa)
ob: KUKT 291235Z AUTO 29010G18KT 270V330 1 1/4SM BR M08/M10 A2977 RMK A01 P0002
cycle: 12

Station Type Date Time Source
KUKT TAF UTC NOAA

Error!

Example: see airport list